createdAt,value
2023-06-19T00:00:22.573Z,14.93
2023-06-19T00:03:25.368Z,14.98
2023-06-19T00:06:28.116Z,14.78
2023-06-19T00:09:30.593Z,14.78
2023-06-19T00:12:35.378Z,14.75
2023-06-19T00:15:40.055Z,14.77
2023-06-19T00:18:43.123Z,14.68
2023-06-19T00:21:45.691Z,14.57
2023-06-19T00:24:48.269Z,14.86
2023-06-19T00:27:50.762Z,14.53
2023-06-19T00:30:53.247Z,14.50
2023-06-19T00:33:58.109Z,14.33
2023-06-19T00:37:01.541Z,14.07
2023-06-19T00:40:04.715Z,14.02
2023-06-19T00:43:08.633Z,14.18
2023-06-19T00:46:12.280Z,14.04
2023-06-19T00:49:17.058Z,14.01
2023-06-19T00:52:19.622Z,13.90
2023-06-19T00:55:29.931Z,14.00
2023-06-19T00:58:36.428Z,14.01
2023-06-19T01:01:41.981Z,13.84
2023-06-19T01:04:44.543Z,14.08
2023-06-19T01:07:55.880Z,14.01
2023-06-19T01:11:14.856Z,14.18
2023-06-19T01:14:27.954Z,13.95
2023-06-19T01:17:33.394Z,13.90
2023-06-19T01:20:38.663Z,13.88
2023-06-19T01:23:44.247Z,13.86
2023-06-19T01:26:51.366Z,13.75
2023-06-19T01:29:56.610Z,13.98
2023-06-19T01:33:12.306Z,14.11
2023-06-19T01:36:15.890Z,13.67
2023-06-19T01:39:20.179Z,13.75
2023-06-19T01:42:22.769Z,13.83
2023-06-19T01:45:25.481Z,13.73
2023-06-19T01:48:28.588Z,13.67
2023-06-19T01:51:31.051Z,13.55
2023-06-19T01:54:38.154Z,13.49
2023-06-19T01:57:40.715Z,13.38
2023-06-19T02:00:45.793Z,13.26
2023-06-19T02:03:50.804Z,13.47
2023-06-19T02:06:55.499Z,13.29
2023-06-19T02:10:02.644Z,13.52
2023-06-19T02:13:11.328Z,13.60
2023-06-19T02:16:13.864Z,13.44
2023-06-19T02:19:18.649Z,13.41
2023-06-19T02:22:23.218Z,13.34
2023-06-19T02:25:25.672Z,13.51
2023-06-19T02:28:28.297Z,13.49
2023-06-19T02:31:32.938Z,13.52
2023-06-19T02:34:35.537Z,13.49
2023-06-19T02:37:38.238Z,13.51
2023-06-19T02:40:40.738Z,13.54
2023-06-19T02:43:45.644Z,13.71
2023-06-19T02:46:50.483Z,13.71
2023-06-19T02:49:52.960Z,13.60
2023-06-19T02:52:55.498Z,13.42
2023-06-19T02:56:00.335Z,13.34
2023-06-19T02:59:07.575Z,13.36
2023-06-19T03:02:10.084Z,13.50
2023-06-19T03:05:17.170Z,13.61
2023-06-19T03:08:21.885Z,13.60
2023-06-19T03:11:24.381Z,13.46
2023-06-19T03:14:27.064Z,13.70
2023-06-19T03:17:29.609Z,13.61
2023-06-19T03:20:34.503Z,13.67
2023-06-19T03:23:39.610Z,13.71
2023-06-19T03:26:42.105Z,13.75
2023-06-19T03:29:46.909Z,13.70
2023-06-19T03:32:54.881Z,13.88
2023-06-19T03:36:26.492Z,14.01
2023-06-19T03:39:30.273Z,13.94
2023-06-19T03:42:41.917Z,14.09
2023-06-19T03:45:44.714Z,14.13
2023-06-19T03:48:51.946Z,14.21
2023-06-19T03:51:55.644Z,14.38
2023-06-19T03:54:58.234Z,14.47
2023-06-19T03:58:00.805Z,14.61
2023-06-19T04:01:04.293Z,14.63
2023-06-19T04:04:06.847Z,14.72
2023-06-19T04:07:09.376Z,14.80
2023-06-19T04:10:12.874Z,14.89
2023-06-19T04:13:17.852Z,14.84
2023-06-19T04:16:21.171Z,15.07
2023-06-19T04:19:24.272Z,15.01
2023-06-19T04:22:26.767Z,15.31
2023-06-19T04:25:29.301Z,15.44
2023-06-19T04:28:32.671Z,15.55
2023-06-19T04:31:42.940Z,15.72
2023-06-19T04:34:47.228Z,15.87
2023-06-19T04:37:50.111Z,15.97
2023-06-19T04:40:53.137Z,16.27
2023-06-19T04:43:55.646Z,16.28
2023-06-19T04:47:02.301Z,16.24
2023-06-19T04:50:07.611Z,16.49
2023-06-19T04:53:10.154Z,16.82
2023-06-19T04:56:12.674Z,17.00
2023-06-19T04:59:19.319Z,17.13
2023-06-19T05:02:21.922Z,17.30
2023-06-19T05:05:24.729Z,17.06
2023-06-19T05:08:27.450Z,17.45
2023-06-19T05:11:30.006Z,17.53
2023-06-19T05:14:32.458Z,17.78
2023-06-19T05:17:35.001Z,17.79
2023-06-19T05:20:39.760Z,17.76
2023-06-19T05:23:42.215Z,17.87
2023-06-19T05:26:49.382Z,17.78
2023-06-19T05:29:53.942Z,17.67
2023-06-19T05:32:58.694Z,17.83
2023-06-19T05:36:02.310Z,17.70
2023-06-19T05:39:05.373Z,18.08
2023-06-19T05:42:08.518Z,18.35
2023-06-19T05:45:14.376Z,18.77
2023-06-19T05:48:17.022Z,19.08
2023-06-19T05:51:24.139Z,19.15
2023-06-19T05:54:28.896Z,19.31
2023-06-19T05:57:34.767Z,19.65
2023-06-19T06:00:37.322Z,19.66
2023-06-19T06:03:40.436Z,19.91
2023-06-19T06:06:43.026Z,20.26
2023-06-19T06:09:45.555Z,20.28
2023-06-19T06:12:51.179Z,20.39
2023-06-19T06:15:53.699Z,20.87
2023-06-19T06:18:58.280Z,21.19
2023-06-19T06:22:03.179Z,21.14
2023-06-19T06:25:06.084Z,21.37
2023-06-19T06:28:08.714Z,22.24
2023-06-19T06:31:11.199Z,23.23
2023-06-19T06:34:14.460Z,23.85
2023-06-19T06:37:23.639Z,24.76
2023-06-19T06:40:26.464Z,25.23
2023-06-19T06:43:29.226Z,26.47
2023-06-19T06:46:34.005Z,27.22
2023-06-19T06:49:37.598Z,27.04
2023-06-19T06:52:40.092Z,27.93
2023-06-19T06:55:45.714Z,28.29
2023-06-19T06:58:48.267Z,28.47
2023-06-19T07:01:50.932Z,28.40
2023-06-19T07:04:53.519Z,29.09
2023-06-19T07:07:55.985Z,29.34
2023-06-19T07:10:58.477Z,29.38
2023-06-19T07:14:00.930Z,29.68
2023-06-19T07:17:03.653Z,30.10
2023-06-19T07:20:09.150Z,30.52
2023-06-19T07:23:12.137Z,29.28
2023-06-19T07:26:15.208Z,28.48
2023-06-19T07:29:17.781Z,29.72
2023-06-19T07:32:20.839Z,29.35
2023-06-19T07:35:23.354Z,30.62
2023-06-19T07:38:28.111Z,30.78
2023-06-19T07:41:32.791Z,30.83
2023-06-19T07:44:35.263Z,30.70
2023-06-19T07:47:40.018Z,31.15
2023-06-19T07:50:42.646Z,31.18
2023-06-19T07:53:45.156Z,32.00
2023-06-19T07:56:47.662Z,31.53
2023-06-19T07:59:51.351Z,32.51
2023-06-19T08:02:54.062Z,32.42
2023-06-19T08:05:58.732Z,31.83
2023-06-19T08:09:01.259Z,32.10
2023-06-19T08:12:04.114Z,32.93
2023-06-19T08:15:07.494Z,32.65
2023-06-19T08:18:10.020Z,33.50
2023-06-19T08:21:13.713Z,33.49
2023-06-19T08:24:16.460Z,33.24
2023-06-19T08:27:18.948Z,33.13
2023-06-19T08:30:23.970Z,32.64
2023-06-19T08:33:28.861Z,33.36
2023-06-19T08:36:34.266Z,34.17
2023-06-19T08:39:40.539Z,34.44
2023-06-19T08:42:44.739Z,34.65
2023-06-19T08:46:19.230Z,34.37
2023-06-19T08:49:25.066Z,34.09
2023-06-19T08:52:27.681Z,33.05
2023-06-19T08:55:30.194Z,33.66
2023-06-19T08:58:33.859Z,33.60
2023-06-19T09:01:36.351Z,34.25
2023-06-19T09:04:38.823Z,34.73
2023-06-19T09:07:41.644Z,35.42
2023-06-19T09:10:54.925Z,35.23
2023-06-19T09:13:58.828Z,34.91
2023-06-19T09:17:03.108Z,35.00
2023-06-19T09:20:10.077Z,34.38
2023-06-19T09:23:13.416Z,33.18
2023-06-19T09:26:20.233Z,34.44
2023-06-19T09:29:27.322Z,35.42
2023-06-19T09:32:30.016Z,36.15
2023-06-19T09:35:34.817Z,35.94
2023-06-19T09:38:40.137Z,34.90
2023-06-19T09:41:52.142Z,34.37
2023-06-19T09:45:00.060Z,34.98
2023-06-19T09:48:02.676Z,34.91
2023-06-19T09:51:32.082Z,35.26
2023-06-19T09:54:36.020Z,35.52
2023-06-19T09:57:39.687Z,35.51
2023-06-19T10:00:42.225Z,35.59
2023-06-19T10:03:44.788Z,35.78
2023-06-19T10:06:50.742Z,36.35
2023-06-19T10:10:01.652Z,35.45
2023-06-19T10:13:15.145Z,34.97
2023-06-19T10:16:22.989Z,35.85
2023-06-19T10:19:28.685Z,36.33
2023-06-19T10:22:33.430Z,36.94
2023-06-19T10:25:39.416Z,37.75
2023-06-19T10:28:48.696Z,36.80
2023-06-19T10:31:51.478Z,36.12
2023-06-19T10:34:54.008Z,35.75
2023-06-19T10:37:56.623Z,36.14
2023-06-19T10:41:01.636Z,36.38
2023-06-19T10:44:06.394Z,35.23
2023-06-19T10:47:08.996Z,35.19
2023-06-19T10:50:15.341Z,31.62
2023-06-19T10:53:28.431Z,31.70
2023-06-19T10:56:31.077Z,30.93
2023-06-19T10:59:36.419Z,31.51
2023-06-19T11:02:40.960Z,30.68
2023-06-19T11:05:47.759Z,31.93
2023-06-19T11:08:53.889Z,32.55
2023-06-19T11:11:59.781Z,32.66
2023-06-19T11:15:06.559Z,33.36
2023-06-19T11:18:11.589Z,32.96
2023-06-19T11:21:16.302Z,34.17
2023-06-19T11:24:20.388Z,31.63
2023-06-19T11:27:29.728Z,31.13
2023-06-19T11:30:35.481Z,29.12
2023-06-19T11:33:40.505Z,28.70
2023-06-19T11:36:43.691Z,28.56
2023-06-19T11:39:50.861Z,28.21
2023-06-19T11:42:56.823Z,27.54
2023-06-19T11:46:11.687Z,27.09
2023-06-19T11:49:18.033Z,27.45
2023-06-19T11:52:25.438Z,27.48
2023-06-19T11:55:30.267Z,27.53
2023-06-19T11:58:32.751Z,28.11
2023-06-19T12:01:38.332Z,28.05
2023-06-19T12:04:42.974Z,28.44
2023-06-19T12:07:48.727Z,28.69
2023-06-19T12:10:51.219Z,29.06
2023-06-19T12:13:58.860Z,29.84
2023-06-19T12:17:01.475Z,31.52
2023-06-19T12:20:07.124Z,32.86
2023-06-19T12:23:09.621Z,32.79
2023-06-19T12:26:12.132Z,31.28
2023-06-19T12:29:16.838Z,30.77
2023-06-19T12:32:19.620Z,31.60
2023-06-19T12:35:25.105Z,32.26
2023-06-19T12:38:27.866Z,32.17
2023-06-19T12:41:30.425Z,31.61
2023-06-19T12:44:32.958Z,32.04
2023-06-19T12:47:37.907Z,32.23
2023-06-19T12:50:40.436Z,32.34
2023-06-19T12:53:42.904Z,32.29
2023-06-19T12:56:46.253Z,31.82
2023-06-19T12:59:48.766Z,33.09
2023-06-19T13:02:51.456Z,33.81
2023-06-19T13:05:56.177Z,33.67
2023-06-19T13:08:58.966Z,33.48
2023-06-19T13:12:01.434Z,33.77
2023-06-19T13:15:04.235Z,33.37
2023-06-19T13:18:06.884Z,32.44
2023-06-19T13:21:09.400Z,32.22
2023-06-19T13:24:12.352Z,32.15
2023-06-19T13:27:14.979Z,32.64
2023-06-19T13:30:19.548Z,32.74
2023-06-19T13:33:22.099Z,31.90
2023-06-19T13:36:25.106Z,31.03
2023-06-19T13:39:27.627Z,31.49
2023-06-19T13:42:32.959Z,31.74
2023-06-19T13:45:35.888Z,31.74
2023-06-19T13:48:38.536Z,31.07
2023-06-19T13:51:41.020Z,31.96
2023-06-19T13:54:43.609Z,32.27
2023-06-19T13:57:46.406Z,32.54
2023-06-19T14:00:49.174Z,31.87
2023-06-19T14:03:51.664Z,31.32
2023-06-19T14:06:56.022Z,31.56
2023-06-19T14:09:58.675Z,31.67
2023-06-19T14:13:01.146Z,31.55
2023-06-19T14:16:03.987Z,31.20
2023-06-19T14:19:08.673Z,30.87
2023-06-19T14:22:11.214Z,30.84
2023-06-19T14:25:14.082Z,30.79
2023-06-19T14:28:19.042Z,30.66
2023-06-19T14:31:21.541Z,30.68
2023-06-19T14:34:24.077Z,30.55
2023-06-19T14:37:27.165Z,29.93
2023-06-19T14:40:29.680Z,29.35
2023-06-19T14:43:34.182Z,29.64
2023-06-19T14:46:40.823Z,29.54
2023-06-19T14:49:45.741Z,29.67
2023-06-19T14:52:50.804Z,29.57
2023-06-19T14:55:53.379Z,29.20
2023-06-19T14:58:56.189Z,29.34
2023-06-19T15:02:00.987Z,29.37
2023-06-19T15:05:07.011Z,28.93
2023-06-19T15:08:11.351Z,29.08
2023-06-19T15:11:13.886Z,28.95
2023-06-19T15:14:18.350Z,29.00
2023-06-19T15:17:23.058Z,29.06
2023-06-19T15:20:25.681Z,28.86
2023-06-19T15:23:28.408Z,29.07
2023-06-19T15:26:31.164Z,28.97
2023-06-19T15:29:33.660Z,28.92
2023-06-19T15:32:41.009Z,28.74
2023-06-19T15:35:46.251Z,28.88
2023-06-19T15:38:49.241Z,28.78
2023-06-19T15:41:51.792Z,28.66
2023-06-19T15:44:54.283Z,28.58
2023-06-19T15:47:59.198Z,28.73
2023-06-19T15:51:04.087Z,28.65
2023-06-19T15:54:08.828Z,28.31
2023-06-19T15:57:13.542Z,28.22
2023-06-19T16:00:16.471Z,27.78
2023-06-19T16:03:21.764Z,27.68
2023-06-19T16:06:24.401Z,27.90
2023-06-19T16:09:27.799Z,27.77
2023-06-19T16:12:32.659Z,27.65
2023-06-19T16:15:36.217Z,27.77
2023-06-19T16:18:38.715Z,27.75
2023-06-19T16:21:43.426Z,27.69
2023-06-19T16:24:48.020Z,27.54
2023-06-19T16:27:53.293Z,27.55
2023-06-19T16:30:55.769Z,27.26
2023-06-19T16:33:58.529Z,27.24
2023-06-19T16:37:01.025Z,27.30
2023-06-19T16:40:06.402Z,27.24
2023-06-19T16:43:11.151Z,27.09
2023-06-19T16:46:13.662Z,26.88
2023-06-19T16:49:18.122Z,26.84
2023-06-19T16:52:21.130Z,26.80
2023-06-19T16:55:25.673Z,26.67
2023-06-19T16:58:30.349Z,26.56
2023-06-19T17:01:33.185Z,26.63
2023-06-19T17:04:35.751Z,26.63
2023-06-19T17:07:40.604Z,26.58
2023-06-19T17:10:43.194Z,26.50
2023-06-19T17:13:48.154Z,26.34
2023-06-19T17:16:52.178Z,26.26
2023-06-19T17:19:56.894Z,26.28
2023-06-19T17:22:59.555Z,25.94
2023-06-19T17:26:02.358Z,25.93
2023-06-19T17:29:05.653Z,25.71
2023-06-19T17:32:11.342Z,25.67
2023-06-19T17:35:16.621Z,25.69
2023-06-19T17:38:19.089Z,25.46
2023-06-19T17:41:21.645Z,25.49
2023-06-19T17:44:31.456Z,25.23
2023-06-19T17:47:33.940Z,25.14
2023-06-19T17:50:36.573Z,24.88
2023-06-19T17:53:42.210Z,24.65
2023-06-19T17:56:45.733Z,24.42
2023-06-19T17:59:48.924Z,24.21
2023-06-19T18:02:51.418Z,24.02
2023-06-19T18:05:54.000Z,23.94
2023-06-19T18:08:56.454Z,23.84
2023-06-19T18:11:58.980Z,23.99
2023-06-19T18:15:01.448Z,23.80
2023-06-19T18:18:07.294Z,23.79
2023-06-19T18:21:09.813Z,23.73
2023-06-19T18:24:12.393Z,23.56
2023-06-19T18:27:15.523Z,23.43
2023-06-19T18:30:20.328Z,23.46
2023-06-19T18:33:25.107Z,23.29
2023-06-19T18:36:28.093Z,23.19
2023-06-19T18:39:30.815Z,23.35
2023-06-19T18:42:35.556Z,23.48
2023-06-19T18:45:38.194Z,23.49
2023-06-19T18:48:42.792Z,23.36
2023-06-19T18:51:45.275Z,23.33
2023-06-19T18:54:48.876Z,23.35
2023-06-19T18:57:53.582Z,23.21
2023-06-19T19:00:56.611Z,23.06
2023-06-19T19:03:59.129Z,22.91
2023-06-19T19:07:03.729Z,23.02
2023-06-19T19:10:10.885Z,23.07
2023-06-19T19:13:15.652Z,23.06
2023-06-19T19:16:20.769Z,23.22
2023-06-19T19:19:28.430Z,23.19
2023-06-19T19:22:33.844Z,23.33
2023-06-19T19:25:39.998Z,23.21
2023-06-19T19:28:42.525Z,23.29
2023-06-19T19:31:45.098Z,23.47
2023-06-19T19:34:49.195Z,23.38
2023-06-19T19:37:53.957Z,23.42
2023-06-19T19:40:58.577Z,23.24
2023-06-19T19:44:01.090Z,23.14
2023-06-19T19:47:03.798Z,22.94
2023-06-19T19:50:11.646Z,22.91
2023-06-19T19:53:16.415Z,22.86
2023-06-19T19:56:19.734Z,22.92
2023-06-19T19:59:22.896Z,22.93
2023-06-19T20:02:25.519Z,22.92
2023-06-19T20:05:28.105Z,22.56
2023-06-19T20:08:30.644Z,22.56
2023-06-19T20:11:34.030Z,22.48
2023-06-19T20:14:36.518Z,22.38
2023-06-19T20:17:41.235Z,22.34
2023-06-19T20:20:43.788Z,22.27
2023-06-19T20:23:46.314Z,22.45
2023-06-19T20:26:48.814Z,22.44
2023-06-19T20:29:51.277Z,22.50
2023-06-19T20:32:56.446Z,22.32
2023-06-19T20:36:02.060Z,22.24
2023-06-19T20:39:06.704Z,22.12
2023-06-19T20:42:09.249Z,22.06
2023-06-19T20:45:11.783Z,21.87
2023-06-19T20:48:14.514Z,21.96
2023-06-19T20:51:16.961Z,22.10
2023-06-19T20:54:21.737Z,22.01
2023-06-19T20:57:24.312Z,22.00
2023-06-19T21:00:29.053Z,22.06
2023-06-19T21:03:32.417Z,22.15
2023-06-19T21:06:34.980Z,21.93
2023-06-19T21:09:37.526Z,21.57
2023-06-19T21:12:40.268Z,21.61
2023-06-19T21:15:42.745Z,21.40
2023-06-19T21:18:45.227Z,21.48
2023-06-19T21:21:47.741Z,21.44
2023-06-19T21:24:50.238Z,21.52
2023-06-19T21:27:52.796Z,21.23
2023-06-19T21:30:57.418Z,21.22
2023-06-19T21:34:00.011Z,21.36
2023-06-19T21:37:02.560Z,21.26
2023-06-19T21:40:10.845Z,21.21
2023-06-19T21:43:13.407Z,21.03
2023-06-19T21:46:16.026Z,20.97
2023-06-19T21:49:20.653Z,20.90
2023-06-19T21:52:26.670Z,20.62
2023-06-19T21:55:29.167Z,20.49
2023-06-19T21:58:33.994Z,20.49
2023-06-19T22:01:37.290Z,20.27
2023-06-19T22:04:39.751Z,20.24
2023-06-19T22:07:42.257Z,19.98
2023-06-19T22:10:44.813Z,19.89
2023-06-19T22:13:47.447Z,19.73
2023-06-19T22:16:49.955Z,19.59
2023-06-19T22:19:54.674Z,19.45
2023-06-19T22:23:01.786Z,19.43
2023-06-19T22:26:04.342Z,19.01
2023-06-19T22:29:07.560Z,18.89
2023-06-19T22:32:10.068Z,19.03
2023-06-19T22:35:14.635Z,19.05
2023-06-19T22:38:17.742Z,18.83
2023-06-19T22:41:20.435Z,19.25
2023-06-19T22:44:22.960Z,19.12
2023-06-19T22:47:25.576Z,19.10
2023-06-19T22:50:28.120Z,19.08
2023-06-19T22:53:32.847Z,18.80
2023-06-19T22:56:35.308Z,19.11
2023-06-19T22:59:40.112Z,19.02
2023-06-19T23:02:44.509Z,18.94
2023-06-19T23:05:47.052Z,18.83
2023-06-19T23:08:52.749Z,19.07
2023-06-19T23:11:57.364Z,19.19
2023-06-19T23:14:59.867Z,19.15
2023-06-19T23:18:08.052Z,19.13
2023-06-19T23:21:10.737Z,19.29
2023-06-19T23:24:13.309Z,19.32
2023-06-19T23:27:16.940Z,19.52
2023-06-19T23:30:21.511Z,19.51
2023-06-19T23:33:26.978Z,19.50
2023-06-19T23:37:44.596Z,19.35
2023-06-19T23:40:47.012Z,19.33
2023-06-19T23:43:49.874Z,19.15
2023-06-19T23:46:52.294Z,18.98
2023-06-19T23:49:54.698Z,18.95
2023-06-19T23:52:57.099Z,18.75
2023-06-19T23:55:59.872Z,18.53
2023-06-19T23:59:02.253Z,18.48
